Time;durP1;ratioP1;P1;durP2;ratioP2;P2;SDS_P1;SDS_P2;PMS_P1;PMS_P2;Temp;Humidity;BMP_temperature;BMP_pressure;BME280_temperature;BME280_humidity;BME280_pressure;Samples;Min_cycle;Max_cycle;Signal;HPM_P1;HPM_P2
2022/06/26 00:01:47;;;;;;;1.45;1.02;;;;;;;-145.69;76.63;70586.63;5075198;28;20198;-76
2022/06/26 00:04:16;;;;;;;3.35;1.02;;;;;;;-145.69;78.08;70608.53;5075792;28;20202;-76
2022/06/26 00:06:42;;;;;;;2.35;1.13;;;;;;;-145.69;78.90;70634.38;5075744;28;20241;-76
2022/06/26 00:09:09;;;;;;;1.13;1.02;;;;;;;-145.69;81.12;70652.28;5075535;28;20203;-77
2022/06/26 00:11:36;;;;;;;5.75;1.48;;;;;;;-145.69;82.99;70670.19;5075407;28;20771;-77
2022/06/26 00:14:04;;;;;;;1.60;1.20;;;;;;;-145.69;83.31;70690.09;5075230;28;20203;-76
2022/06/26 00:16:31;;;;;;;3.72;1.17;;;;;;;-145.69;85.00;70708.00;5075598;28;20202;-76
2022/06/26 00:18:57;;;;;;;2.47;1.27;;;;;;;-145.69;87.40;70713.97;5075165;28;20652;-77
2022/06/26 00:21:25;;;;;;;3.00;1.25;;;;;;;-145.69;89.73;70721.91;5075525;28;20202;-77
2022/06/26 00:23:52;;;;;;;2.00;1.20;;;;;;;-145.69;90.91;70737.84;5075002;28;20680;-76
2022/06/26 00:26:18;;;;;;;2.15;1.35;;;;;;;-145.69;90.16;70745.78;5075290;28;20252;-76
2022/06/26 00:28:46;;;;;;;1.58;1.23;;;;;;;-145.69;93.51;70745.78;5075375;28;20197;-77
2022/06/26 00:31:14;;;;;;;3.30;1.33;;;;;;;-145.69;92.78;70751.75;5075268;28;20222;-76
2022/06/26 00:33:42;;;;;;;5.20;1.40;;;;;;;-145.69;95.95;70769.66;5075128;28;20195;-77
2022/06/26 00:36:09;;;;;;;1.40;1.30;;;;;;;-145.69;96.09;70771.66;5075160;28;20248;-76
2022/06/26 00:38:38;;;;;;;2.30;1.48;;;;;;;-145.69;95.97;70777.63;5075088;28;20198;-76
2022/06/26 00:41:05;;;;;;;5.80;1.42;;;;;;;-145.69;99.46;70785.59;5074953;28;20215;-76
2022/06/26 00:43:32;;;;;;;2.10;1.38;;;;;;;-145.69;99.73;70789.56;5073048;28;20210;-76
2022/06/26 00:45:59;;;;;;;1.63;1.27;;;;;;;-145.69;100.00;70789.56;5072658;28;20205;-77
2022/06/26 00:48:29;;;;;;;2.08;1.52;;;;;;;-145.69;100.00;70791.56;5074894;28;20199;-77
2022/06/26 00:50:55;;;;;;;1.60;1.40;;;;;;;-145.69;100.00;70791.56;5074817;28;20230;-77
2022/06/26 00:53:22;;;;;;;3.47;1.30;;;;;;;-145.69;100.00;70789.56;5074645;28;20203;-77
2022/06/26 00:55:49;;;;;;;2.35;1.73;;;;;;;-145.69;100.00;70785.59;5074517;28;20203;-76
2022/06/26 00:58:16;;;;;;;2.75;1.63;;;;;;;-145.69;100.00;70797.53;5074599;28;20194;-76
2022/06/26 01:00:44;;;;;;;2.17;1.40;;;;;;;-145.69;100.00;70807.47;5074557;28;20687;-76
2022/06/26 01:03:11;;;;;;;4.13;1.58;;;;;;;-145.69;100.00;70807.47;5074473;28;20206;-77
2022/06/26 01:05:39;;;;;;;1.90;1.67;;;;;;;-145.69;100.00;70815.44;5074342;28;20657;-77
2022/06/26 01:08:07;;;;;;;2.13;1.52;;;;;;;-145.69;100.00;70807.47;5074252;28;20202;-77
2022/06/26 01:10:37;;;;;;;2.17;1.30;;;;;;;-145.69;100.00;70817.41;5074024;28;20213;-77
2022/06/26 01:13:03;;;;;;;2.72;1.77;;;;;;;-145.69;100.00;70829.34;5073938;28;20203;-76
2022/06/26 01:15:30;;;;;;;2.70;1.50;;;;;;;-145.69;100.00;70833.34;5074316;28;20677;-77
2022/06/26 01:17:57;;;;;;;4.70;1.80;;;;;;;-145.69;100.00;70843.28;5074319;28;20202;-77
2022/06/26 01:20:24;;;;;;;1.65;1.40;;;;;;;-145.69;100.00;70841.28;5074327;28;20253;-77
2022/06/26 01:23:02;;;;;;;4.65;1.50;;;;;;;-145.69;100.00;70835.31;5073020;28;20621;-78
2022/06/26 01:25:42;;;;;;;2.28;1.42;;;;;;;-145.69;100.00;70849.25;5074104;28;20564;-76
2022/06/26 01:28:09;;;;;;;3.28;1.17;;;;;;;-145.69;100.00;70845.28;5074120;28;20669;-77
2022/06/26 01:30:37;;;;;;;2.15;1.30;;;;;;;-145.69;100.00;70841.28;5073745;28;20199;-76
2022/06/26 01:33:08;;;;;;;4.63;1.55;;;;;;;-145.69;100.00;70835.31;5072801;28;20191;-77
2022/06/26 01:38:57;;;;;;;1.60;1.50;;;;;;;-145.69;100.00;70845.28;5067609;28;20209;-76
2022/06/26 01:41:26;;;;;;;2.03;1.65;;;;;;;-145.69;100.00;70841.28;5073751;28;20210;-77
2022/06/26 01:43:55;;;;;;;2.35;1.55;;;;;;;-145.69;100.00;70849.25;5073704;28;20306;-77
2022/06/26 01:46:24;;;;;;;3.08;1.90;;;;;;;-145.69;100.00;70855.22;5073470;28;20234;-77
2022/06/26 01:48:50;;;;;;;3.42;1.48;;;;;;;-145.69;100.00;70865.16;5073248;28;20207;-76
2022/06/26 01:51:17;;;;;;;3.50;1.65;;;;;;;-145.69;100.00;70871.13;5073167;28;20226;-77
2022/06/26 01:53:44;;;;;;;3.00;1.85;;;;;;;-145.69;100.00;70873.13;5073352;28;20199;-77
2022/06/26 01:56:12;;;;;;;3.03;1.70;;;;;;;-145.69;100.00;70877.09;5072949;28;20198;-77
2022/06/26 01:58:38;;;;;;;1.60;1.50;;;;;;;-145.69;100.00;70877.09;5072924;28;20653;-77
2022/06/26 02:01:07;;;;;;;2.42;1.58;;;;;;;-145.69;100.00;70869.16;5073419;28;20206;-77
2022/06/26 02:03:33;;;;;;;2.92;1.67;;;;;;;-145.69;100.00;70873.13;5073557;28;20202;-78
2022/06/26 02:06:00;;;;;;;2.75;1.38;;;;;;;-145.69;100.00;70881.09;5072823;28;20209;-77
2022/06/26 02:08:26;;;;;;;3.63;1.60;;;;;;;-145.69;100.00;70889.03;5073174;28;20203;-76
2022/06/26 02:13:39;;;;;;;2.30;1.83;;;;;;;-145.69;100.00;70881.09;5073523;28;20641;-77
2022/06/26 02:16:11;;;;;;;2.13;1.45;;;;;;;-145.69;100.00;70881.09;5072768;28;20661;-76
2022/06/26 02:18:39;;;;;;;4.45;1.55;;;;;;;-145.69;100.00;70879.09;5072937;28;20210;-78
2022/06/26 02:21:08;;;;;;;2.83;1.70;;;;;;;-145.69;100.00;70897.00;5072793;28;20187;-77
2022/06/26 02:23:35;;;;;;;3.38;1.48;;;;;;;-145.69;100.00;70914.91;5072949;28;20203;-76
2022/06/26 02:26:02;;;;;;;1.58;1.48;;;;;;;-145.69;100.00;70904.97;5072922;28;20203;-76
2022/06/26 02:28:29;;;;;;;1.70;1.60;;;;;;;-145.69;100.00;70902.97;5073042;28;20198;-76
2022/06/26 02:31:00;;;;;;;1.80;1.63;;;;;;;-145.69;100.00;70904.97;5072878;28;20672;-76
2022/06/26 02:33:28;;;;;;;6.30;1.90;;;;;;;-145.69;100.00;70904.97;5072355;28;20202;-76
2022/06/26 02:35:57;;;;;;;1.85;1.60;;;;;;;-145.69;100.00;70920.88;5072998;28;20241;-76
2022/06/26 02:38:24;;;;;;;2.63;1.50;;;;;;;-145.69;100.00;70930.81;5073164;28;20202;-77
2022/06/26 02:40:50;;;;;;;3.72;1.80;;;;;;;-145.69;100.00;70948.72;5072985;28;20214;-77
2022/06/26 02:43:18;;;;;;;2.42;1.58;;;;;;;-145.69;100.00;70950.72;5072979;28;20199;-77
2022/06/26 02:45:45;;;;;;;2.40;1.63;;;;;;;-145.69;100.00;70948.72;5072840;28;20198;-77
2022/06/26 02:48:13;;;;;;;2.28;1.90;;;;;;;-145.69;100.00;70950.72;5072257;28;20234;-77
2022/06/26 02:50:40;;;;;;;3.23;1.80;;;;;;;-145.69;100.00;70944.75;5072502;28;20447;-77
2022/06/26 02:53:06;;;;;;;2.35;1.60;;;;;;;-145.69;100.00;70942.75;5070459;28;20227;-77
2022/06/26 02:55:33;;;;;;;2.35;2.00;;;;;;;-145.69;100.00;70942.75;5052780;28;20334;-77
2022/06/26 02:57:59;;;;;;;2.67;1.90;;;;;;;-145.69;100.00;70940.78;5052838;28;20199;-77
2022/06/26 03:00:26;;;;;;;2.53;1.73;;;;;;;-145.69;100.00;70934.81;5052576;28;20206;-76
2022/06/26 03:02:52;;;;;;;2.33;1.70;;;;;;;-145.69;100.00;70930.81;5052631;28;20206;-76
2022/06/26 03:05:20;;;;;;;3.38;1.50;;;;;;;-145.69;100.00;70932.81;5052826;28;20207;-76
2022/06/26 03:07:46;;;;;;;2.40;1.55;;;;;;;-145.69;100.00;70936.78;5052690;28;20200;-78
2022/06/26 03:10:15;;;;;;;1.60;1.50;;;;;;;-145.69;100.00;70940.78;5052640;28;20272;-76
2022/06/26 03:12:49;;;;;;;1.67;1.35;;;;;;;-145.69;100.00;70944.75;5052532;28;20235;-77
2022/06/26 03:15:16;;;;;;;4.32;1.50;;;;;;;-145.69;100.00;70946.75;5052156;28;20198;-76
2022/06/26 03:17:45;;;;;;;1.77;1.52;;;;;;;-145.69;100.00;70948.72;5053491;28;20199;-76
2022/06/26 03:20:16;;;;;;;2.25;1.85;;;;;;;-145.69;100.00;70964.66;5072407;28;20202;-76
2022/06/26 03:22:44;;;;;;;2.00;1.55;;;;;;;-145.69;100.00;70964.66;5072542;28;20203;-76
2022/06/26 03:25:16;;;;;;;3.25;1.70;;;;;;;-145.69;100.00;70962.66;5071843;28;20438;-76
2022/06/26 03:27:43;;;;;;;5.13;1.83;;;;;;;-145.69;100.00;70976.59;5071839;28;20289;-76
2022/06/26 03:30:11;;;;;;;4.00;1.77;;;;;;;-145.69;100.00;70974.59;5074699;28;20199;-76
2022/06/26 03:32:38;;;;;;;1.92;1.63;;;;;;;-145.69;100.00;70976.59;5076355;28;20308;-76
2022/06/26 03:35:08;;;;;;;4.80;2.13;;;;;;;-145.69;100.00;70968.63;5076466;28;20198;-76
2022/06/26 03:37:39;;;;;;;2.58;1.83;;;;;;;-145.69;100.00;70970.63;5076082;28;20199;-76
2022/06/26 03:40:19;;;;;;;2.25;1.60;;;;;;;-145.69;100.00;70972.59;5076147;28;20585;-76
2022/06/26 03:42:48;;;;;;;3.55;1.83;;;;;;;-145.69;100.00;70970.63;5075830;28;20678;-76
2022/06/26 03:45:18;;;;;;;2.40;1.65;;;;;;;-145.69;100.00;70980.56;5075861;28;20661;-76
2022/06/26 03:47:46;;;;;;;3.55;1.90;;;;;;;-145.69;100.00;70984.53;5075776;28;20227;-76
2022/06/26 03:50:13;;;;;;;3.30;1.50;;;;;;;-145.69;100.00;70978.56;5075375;28;20446;-76
2022/06/26 03:52:39;;;;;;;1.73;1.63;;;;;;;-145.69;100.00;70984.53;5075391;28;20258;-76
2022/06/26 03:55:14;;;;;;;2.00;1.52;;;;;;;-145.69;100.00;70976.59;5076139;28;20205;-76
2022/06/26 03:57:43;;;;;;;3.70;1.67;;;;;;;-145.69;100.00;70980.56;5075492;28;20664;-76
2022/06/26 04:00:20;;;;;;;5.97;1.70;;;;;;;-145.69;100.00;70984.53;5075812;28;20225;-76
2022/06/26 04:02:52;;;;;;;1.50;1.33;;;;;;;-145.69;100.00;70972.59;5075780;28;20195;-76
2022/06/26 04:05:19;;;;;;;2.35;1.50;;;;;;;-145.69;100.00;70968.63;5074938;28;20202;-76
2022/06/26 04:07:49;;;;;;;1.30;1.20;;;;;;;-145.69;100.00;70962.66;5075603;28;20649;-76
2022/06/26 04:10:16;;;;;;;2.28;1.40;;;;;;;-145.69;100.00;70962.66;5075707;28;20209;-76
2022/06/26 04:12:47;;;;;;;1.50;1.40;;;;;;;-145.69;100.00;70966.63;5074927;28;20250;-76
2022/06/26 04:15:18;;;;;;;2.53;1.42;;;;;;;-145.69;100.00;70964.66;5075457;28;20264;-76
2022/06/26 04:17:45;;;;;;;2.33;1.50;;;;;;;-145.69;100.00;70958.69;5074985;28;20206;-76
2022/06/26 04:20:15;;;;;;;3.88;1.27;;;;;;;-145.69;100.00;70956.69;5075429;28;20203;-76
2022/06/26 04:22:54;;;;;;;1.95;1.33;;;;;;;-145.69;100.00;70960.66;5075082;28;20483;-76
2022/06/26 04:25:21;;;;;;;1.80;1.40;;;;;;;-145.69;100.00;70956.69;5074802;28;20434;-76
2022/06/26 04:27:53;;;;;;;1.90;1.23;;;;;;;-145.69;100.00;70964.66;5075262;28;20202;-76
2022/06/26 04:30:20;;;;;;;2.10;1.20;;;;;;;-145.69;100.00;70950.72;5075329;28;20233;-76
2022/06/26 04:32:49;;;;;;;1.60;1.20;;;;;;;-145.69;100.00;70956.69;5074955;28;20457;-76
2022/06/26 04:35:22;;;;;;;3.38;1.33;;;;;;;-145.69;100.00;70952.72;5074227;28;20820;-76
2022/06/26 04:38:00;;;;;;;4.38;1.48;;;;;;;-145.69;100.00;70948.72;5075367;28;20293;-76
2022/06/26 04:40:29;;;;;;;1.30;1.20;;;;;;;-145.69;100.00;70952.72;5074536;28;20260;-76
2022/06/26 04:42:59;;;;;;;4.50;1.58;;;;;;;-145.69;100.00;70960.66;5074492;28;20558;-76
2022/06/26 04:45:26;;;;;;;2.35;1.67;;;;;;;-145.69;100.00;70952.72;5075004;28;20226;-76
2022/06/26 04:47:58;;;;;;;1.33;1.23;;;;;;;-145.69;100.00;70952.72;5072645;28;20648;-76
2022/06/26 04:50:26;;;;;;;2.03;1.45;;;;;;;-145.69;100.00;70948.72;5054830;28;20230;-76
2022/06/26 04:53:00;;;;;;;1.85;1.30;;;;;;;-145.69;100.00;70952.72;5054457;28;20227;-76
2022/06/26 04:55:27;;;;;;;1.92;1.42;;;;;;;-145.69;100.00;70950.72;5054573;28;20210;-77
2022/06/26 04:57:55;;;;;;;2.08;1.38;;;;;;;-145.69;100.00;70960.66;5054141;28;20651;-76
2022/06/26 05:00:26;;;;;;;1.52;1.33;;;;;;;-145.69;100.00;70976.59;5054721;28;20265;-76
2022/06/26 05:02:57;;;;;;;1.50;1.40;;;;;;;-145.69;100.00;70972.59;5054741;28;20263;-76
2022/06/26 05:05:26;;;;;;;3.28;1.40;;;;;;;-145.69;100.00;70974.59;5054516;28;20203;-75
2022/06/26 05:07:58;;;;;;;1.90;1.38;;;;;;;-145.69;100.00;70964.66;5054332;28;20200;-76
2022/06/26 05:10:27;;;;;;;3.70;1.60;;;;;;;-145.69;100.00;70960.66;5054522;28;20199;-76
2022/06/26 05:12:53;;;;;;;2.80;1.20;;;;;;;-145.69;100.00;70960.66;5071843;28;20226;-76
2022/06/26 05:15:27;;;;;;;1.42;1.27;;;;;;;-145.69;100.00;70964.66;5074496;28;20203;-76
2022/06/26 05:17:54;;;;;;;2.40;1.38;;;;;;;-145.69;100.00;70950.72;5074020;28;20245;-76
2022/06/26 05:20:23;;;;;;;1.60;1.17;;;;;;;-145.69;100.00;70938.78;5074038;28;20203;-75
2022/06/26 05:22:49;;;;;;;2.13;1.20;;;;;;;-145.69;100.00;70922.88;5074432;28;20225;-76
2022/06/26 05:25:16;;;;;;;1.20;1.10;;;;;;;-145.69;100.00;70918.88;5074204;28;20210;-76
2022/06/26 05:27:43;;;;;;;3.45;1.42;;;;;;;-145.69;100.00;70889.03;5074095;28;20649;-76
2022/06/26 05:30:23;;;;;;;1.55;1.13;;;;;;;-145.69;100.00;70873.13;5074131;28;20202;-76
2022/06/26 05:32:52;;;;;;;2.08;1.40;;;;;;;-145.69;100.00;70851.25;5073811;28;20230;-76
2022/06/26 05:35:20;;;;;;;1.95;1.30;;;;;;;-145.69;100.00;70833.34;5074162;28;20203;-76
2022/06/26 05:37:51;;;;;;;1.35;1.00;;;;;;;-145.69;100.00;70815.44;5073801;28;20681;-76
2022/06/26 05:40:23;;;;;;;1.65;1.00;;;;;;;-145.69;100.00;70789.56;5074011;28;20248;-76
2022/06/26 05:42:56;;;;;;;1.75;1.00;;;;;;;-145.69;100.00;70700.03;5073404;28;20683;-76
2022/06/26 05:45:25;;;;;;;0.73;0.65;;;;;;;-145.69;100.00;70568.72;5072982;28;20434;-76
2022/06/26 05:47:54;;;;;;;0.77;0.70;;;;;;;-145.69;99.83;70461.31;5073510;28;20235;-76
2022/06/26 05:50:23;;;;;;;0.88;0.77;;;;;;;-145.69;90.44;70343.94;5073831;28;20210;-77
2022/06/26 05:52:49;;;;;;;1.00;0.80;;;;;;;-145.69;89.96;70322.03;5072614;28;20223;-77
2022/06/26 05:55:20;;;;;;;1.10;0.70;;;;;;;-145.69;85.09;70371.78;5073608;28;20620;-78
2022/06/26 05:57:53;;;;;;;0.80;0.50;;;;;;;-145.69;85.19;70335.97;5073478;28;20293;-77
2022/06/26 06:00:26;;;;;;;0.90;0.52;;;;;;;-145.69;79.26;70244.47;5073369;28;20285;-77
2022/06/26 06:02:59;;;;;;;1.50;0.68;;;;;;;-145.69;74.49;70143.00;5073315;28;20194;-77
2022/06/26 06:05:31;;;;;;;2.28;0.55;;;;;;;-145.69;72.55;70111.19;5053003;28;20286;-77
2022/06/26 06:08:00;;;;;;;0.88;0.50;;;;;;;-145.69;66.81;70063.44;5053594;28;20203;-78
2022/06/26 06:10:30;;;;;;;0.70;0.60;;;;;;;-145.69;70.59;70085.31;5053102;28;20212;-78
2022/06/26 06:12:57;;;;;;;0.63;0.60;;;;;;;-145.69;67.90;70081.34;5053079;28;20701;-77
2022/06/26 06:15:25;;;;;;;0.88;0.55;;;;;;;-145.69;71.40;70145.00;5052303;28;20207;-77
2022/06/26 06:17:52;;;;;;;2.05;0.60;;;;;;;-145.69;70.32;70166.88;5053138;28;20222;-77
2022/06/26 06:20:25;;;;;;;0.60;0.55;;;;;;;-145.69;69.32;70150.97;5053008;28;20298;-78
2022/06/26 06:22:57;;;;;;;0.40;0.40;;;;;;;-145.69;67.89;70105.22;5052682;28;20211;-78
2022/06/26 06:25:27;;;;;;;2.08;0.60;;;;;;;-145.69;68.33;70077.38;5053183;28;20231;-77
2022/06/26 06:28:08;;;;;;;1.40;0.40;;;;;;;-145.69;63.56;70029.63;5052918;28;20195;-77
2022/06/26 06:30:38;;;;;;;0.55;0.40;;;;;;;-145.69;68.93;70131.06;5052917;28;20211;-78
2022/06/26 06:33:08;;;;;;;0.30;0.30;;;;;;;-145.69;75.52;70174.84;5054767;28;20588;-78
2022/06/26 06:35:51;;;;;;;1.05;0.50;;;;;;;-145.69;72.04;70079.34;5072613;28;20214;-78
2022/06/26 06:38:22;;;;;;;1.98;0.40;;;;;;;-145.69;74.15;70079.34;5072686;28;20202;-78
2022/06/26 06:40:49;;;;;;;0.90;0.40;;;;;;;-145.69;75.16;70109.19;5072937;28;20199;-78
2022/06/26 06:43:15;;;;;;;0.47;0.43;;;;;;;-145.69;73.45;70141.03;5072713;28;20203;-78
2022/06/26 06:45:56;;;;;;;0.80;0.40;;;;;;;-145.69;71.89;70137.03;5072537;28;20209;-78
2022/06/26 06:48:27;;;;;;;0.40;0.40;;;;;;;-145.69;76.90;70111.19;5072728;28;20198;-78
2022/06/26 06:50:56;;;;;;;1.35;0.60;;;;;;;-145.69;72.78;70220.59;5072407;28;20198;-78
2022/06/26 06:53:25;;;;;;;2.58;0.63;;;;;;;-145.69;70.93;70312.09;5065410;28;20302;-77
2022/06/26 06:55:55;;;;;;;1.48;0.50;;;;;;;-145.69;72.84;70369.78;5052479;28;20207;-77
2022/06/26 06:58:24;;;;;;;1.00;0.70;;;;;;;-145.69;76.73;70304.13;5052327;28;20214;-77
2022/06/26 07:00:52;;;;;;;1.95;1.13;;;;;;;-145.69;77.13;70238.50;5052661;28;20203;-77
2022/06/26 07:03:21;;;;;;;0.90;0.50;;;;;;;-145.69;74.63;70194.72;5059128;28;20206;-77
2022/06/26 07:05:53;;;;;;;1.08;0.88;;;;;;;-145.69;71.66;70182.78;5076660;28;20202;-78
2022/06/26 07:08:24;;;;;;;0.68;0.60;;;;;;;-145.69;74.33;70172.84;5076299;28;20248;-77
2022/06/26 07:10:50;;;;;;;0.82;0.50;;;;;;;-145.69;71.71;70154.94;5076498;28;20245;-77
2022/06/26 07:13:19;;;;;;;0.60;0.60;;;;;;;-145.69;70.43;70218.59;5076200;28;20219;-77
2022/06/26 07:15:47;;;;;;;0.73;0.70;;;;;;;-145.69;70.82;70228.53;5076615;28;20205;-77
2022/06/26 07:18:18;;;;;;;1.88;0.80;;;;;;;-145.69;72.17;70196.72;5076198;28;20233;-78
2022/06/26 07:20:46;;;;;;;0.40;0.40;;;;;;;-145.69;69.52;70268.34;5076437;28;20202;-77
2022/06/26 07:23:13;;;;;;;2.38;0.68;;;;;;;-145.69;74.38;70240.47;5075104;28;20500;-77
2022/06/26 07:25:42;;;;;;;2.85;0.90;;;;;;;-145.69;74.29;70224.56;5076405;28;20209;-77
2022/06/26 07:28:11;;;;;;;1.92;0.60;;;;;;;-145.69;74.29;70220.59;5076344;28;20234;-76
2022/06/26 07:30:39;;;;;;;0.80;0.70;;;;;;;-145.69;75.03;70272.31;5075934;28;20199;-76
2022/06/26 07:34:12;;;;;;;1.10;0.60;;;;;;;-145.69;75.03;70272.31;5075688;28;20246;-76
2022/06/26 07:36:04;;;;;;;1.98;0.70;;;;;;;-145.69;74.36;70218.59;5075929;28;20195;-77
2022/06/26 07:38:45;;;;;;;1.35;0.77;;;;;;;-145.69;77.17;70208.66;5076150;28;20202;-78
2022/06/26 07:41:13;;;;;;;1.42;0.70;;;;;;;-145.69;74.30;70208.66;5074226;28;20198;-80
2022/06/26 07:43:42;;;;;;;1.88;0.82;;;;;;;-145.69;74.69;70246.44;5076053;28;20203;-79
2022/06/26 07:46:17;;;;;;;2.58;0.68;;;;;;;-145.69;76.02;70262.38;5075736;28;20245;-77
2022/06/26 07:48:47;;;;;;;1.15;0.80;;;;;;;-145.69;73.97;70268.34;5076056;28;20206;-79
2022/06/26 07:51:14;;;;;;;1.27;0.82;;;;;;;-145.69;72.12;70240.47;5075773;28;20210;-79
2022/06/26 07:53:40;;;;;;;1.73;0.80;;;;;;;-145.69;73.20;70264.34;5075661;28;20233;-76
2022/06/26 07:56:07;;;;;;;1.13;0.88;;;;;;;-145.69;74.60;70272.31;5075419;28;20207;-78
2022/06/26 07:58:41;;;;;;;2.38;0.70;;;;;;;-145.69;73.29;70252.41;5075361;28;20565;-77
2022/06/26 08:01:09;;;;;;;2.33;0.90;;;;;;;-145.69;72.42;70212.63;5075764;28;20198;-76
2022/06/26 08:03:37;;;;;;;1.02;0.80;;;;;;;-145.69;69.32;70194.72;5075341;28;20636;-79
2022/06/26 08:06:07;;;;;;;1.05;0.80;;;;;;;-145.69;67.88;70186.78;5075338;28;20514;-79
2022/06/26 08:08:37;;;;;;;0.50;0.50;;;;;;;-145.69;68.16;70160.91;5075806;28;20199;-79
2022/06/26 08:11:04;;;;;;;1.20;0.70;;;;;;;-145.69;69.19;70152.97;5075417;28;20207;-76
2022/06/26 08:13:37;;;;;;;1.35;0.73;;;;;;;-145.69;70.08;70148.97;5075707;28;20233;-77
2022/06/26 08:16:03;;;;;;;0.70;0.60;;;;;;;-145.69;66.43;70091.28;5074918;28;20210;-78
2022/06/26 08:18:30;;;;;;;0.60;0.60;;;;;;;-145.69;61.84;70077.38;5075305;28;20608;-77
2022/06/26 08:20:56;;;;;;;1.00;0.80;;;;;;;-145.69;65.06;70156.94;5075262;28;20256;-77
2022/06/26 08:23:26;;;;;;;1.35;0.70;;;;;;;-145.69;65.51;70111.19;5075171;28;20260;-77
2022/06/26 08:25:52;;;;;;;0.65;0.63;;;;;;;-145.69;63.76;70061.44;5075248;28;20206;-76
2022/06/26 08:28:20;;;;;;;1.10;0.90;;;;;;;-145.69;62.16;70085.31;5075391;28;20249;-79
2022/06/26 08:30:52;;;;;;;0.98;0.85;;;;;;;-145.69;64.91;70160.91;5075078;28;20195;-76
2022/06/26 08:33:19;;;;;;;2.63;0.90;;;;;;;-145.69;65.00;70125.09;5074803;28;20215;-79
2022/06/26 08:35:48;;;;;;;0.98;0.70;;;;;;;-145.69;64.74;70059.47;5074996;28;20654;-77
2022/06/26 08:38:14;;;;;;;0.70;0.70;;;;;;;-145.69;63.74;70101.25;5074918;28;20211;-76
2022/06/26 08:40:49;;;;;;;2.22;0.70;;;;;;;-145.69;67.40;70129.09;5074791;28;20442;-76
2022/06/26 08:43:21;;;;;;;1.58;0.77;;;;;;;-145.69;64.02;70049.50;5075026;28;20202;-77
2022/06/26 08:45:53;;;;;;;2.53;0.68;;;;;;;-145.69;65.51;70063.44;5074813;28;20199;-79
2022/06/26 08:48:20;;;;;;;1.20;0.70;;;;;;;-145.69;68.22;70007.75;5074613;28;20325;-78
2022/06/26 08:50:50;;;;;;;1.42;0.80;;;;;;;-145.69;60.75;70009.72;5074330;28;20210;-78
2022/06/26 08:53:21;;;;;;;0.63;0.63;;;;;;;-145.69;61.46;70023.66;5074133;28;20223;-80
2022/06/26 08:55:49;;;;;;;0.60;0.52;;;;;;;-145.69;63.31;70009.72;5074883;28;20264;-78
2022/06/26 08:58:17;;;;;;;2.35;0.88;;;;;;;-145.69;59.26;69942.09;5057853;28;20203;-79
2022/06/26 09:00:47;;;;;;;0.63;0.55;;;;;;;-145.69;62.55;69902.31;5054287;28;20601;-78
2022/06/26 09:03:23;;;;;;;0.70;0.60;;;;;;;-145.69;57.60;69926.19;5061349;28;20206;-79
2022/06/26 09:05:50;;;;;;;0.65;0.60;;;;;;;-145.69;57.96;69868.50;5074694;28;20556;-78
2022/06/26 09:08:21;;;;;;;0.50;0.40;;;;;;;-145.69;55.29;69852.59;5074559;28;20226;-77
2022/06/26 09:10:48;;;;;;;0.60;0.60;;;;;;;-145.69;57.35;69936.13;5074568;28;20298;-79
2022/06/26 09:13:17;;;;;;;0.90;0.50;;;;;;;-145.69;60.66;70033.59;5074161;28;20249;-77
2022/06/26 09:15:50;;;;;;;2.92;0.80;;;;;;;-145.69;61.27;70017.69;5074167;28;20661;-78
2022/06/26 09:18:20;;;;;;;1.30;0.52;;;;;;;-145.69;62.28;70097.25;5073858;28;20203;-78
2022/06/26 09:20:52;;;;;;;1.20;0.60;;;;;;;-145.69;64.17;70037.59;5073996;28;20207;-76
2022/06/26 09:23:19;;;;;;;2.30;0.50;;;;;;;-145.69;58.98;70049.50;5074063;28;20661;-78
2022/06/26 09:25:46;;;;;;;1.35;0.77;;;;;;;-145.69;60.78;70065.44;5073909;28;20683;-78
2022/06/26 09:28:15;;;;;;;1.95;0.65;;;;;;;-145.69;59.00;70049.50;5072532;28;20608;-75
2022/06/26 09:30:53;;;;;;;1.10;0.80;;;;;;;-145.69;60.09;70015.69;5074018;28;20231;-76
2022/06/26 09:33:22;;;;;;;0.82;0.52;;;;;;;-145.69;60.89;69997.78;5073057;28;20241;-76
2022/06/26 09:35:49;;;;;;;0.60;0.60;;;;;;;-145.69;59.08;70023.66;5073668;28;20199;-77
2022/06/26 09:38:17;;;;;;;1.05;0.70;;;;;;;-145.69;62.05;70061.44;5073619;28;20248;-76
2022/06/26 09:40:49;;;;;;;1.65;0.90;;;;;;;-145.69;65.16;70107.19;5073657;28;20247;-77
2022/06/26 09:43:25;;;;;;;1.00;0.90;;;;;;;-145.69;63.76;70117.16;5073613;28;20249;-76
2022/06/26 09:45:52;;;;;;;2.80;0.85;;;;;;;-145.69;65.36;70158.94;5073788;28;20198;-76
2022/06/26 09:48:24;;;;;;;1.13;0.75;;;;;;;-145.69;68.94;70129.09;5073243;28;20235;-75
2022/06/26 09:50:51;;;;;;;2.15;0.50;;;;;;;-145.69;68.55;70089.31;5073912;28;20222;-76
2022/06/26 09:53:18;;;;;;;0.93;0.77;;;;;;;-145.69;65.94;70087.31;5074179;28;20201;-76
2022/06/26 09:55:45;;;;;;;1.00;0.63;;;;;;;-145.69;67.50;70049.50;5073695;28;20206;-76
2022/06/26 09:58:13;;;;;;;0.80;0.80;;;;;;;-145.69;63.47;70083.34;5073613;28;20206;-76
2022/06/26 10:00:42;;;;;;;1.52;0.90;;;;;;;-145.69;63.46;70055.47;5073485;28;20203;-75
2022/06/26 10:08:44;;;;;;;1.08;0.80;;;;;;;-145.69;62.93;69989.84;5073264;28;20252;-75
2022/06/26 10:11:11;;;;;;;2.53;0.70;;;;;;;-145.69;64.59;69950.06;5073291;28;20202;-76
2022/06/26 10:13:43;;;;;;;1.52;0.73;;;;;;;-145.69;59.51;69942.09;5072932;28;20581;-78
2022/06/26 10:16:24;;;;;;;0.80;0.80;;;;;;;-145.69;60.85;69979.91;5072976;28;20202;-76
2022/06/26 10:19:07;;;;;;;2.50;0.90;;;;;;;-145.69;63.74;69971.94;5073339;28;20203;-77
2022/06/26 10:21:38;;;;;;;7.05;1.20;;;;;;;-145.69;67.59;69942.09;5073247;28;20210;-77
2022/06/26 10:24:05;;;;;;;1.77;0.80;;;;;;;-145.69;60.93;69962.00;5072902;28;20199;-76
2022/06/26 10:26:35;;;;;;;0.65;0.65;;;;;;;-145.69;70.45;69924.19;5073028;28;20199;-77
2022/06/26 10:29:04;;;;;;;1.08;0.70;;;;;;;-145.69;65.84;69898.34;5073152;28;20206;-78
2022/06/26 10:31:31;;;;;;;5.50;1.00;;;;;;;-145.69;62.42;69886.41;5073090;28;20206;-78
2022/06/26 10:34:10;;;;;;;0.93;0.75;;;;;;;-145.69;61.82;69892.38;5072660;28;20218;-77
2022/06/26 10:36:38;;;;;;;1.33;0.80;;;;;;;-145.69;61.31;69918.22;5073001;28;20203;-80
2022/06/26 10:39:05;;;;;;;1.52;0.80;;;;;;;-145.69;61.71;69914.25;5072039;28;20195;-79
2022/06/26 10:44:38;;;;;;;0.70;0.70;;;;;;;-145.69;61.94;69930.16;5033486;28;20677;-78
2022/06/26 10:47:14;;;;;;;1.20;0.73;;;;;;;-145.69;63.88;69948.06;5072741;28;20234;-78
2022/06/26 10:49:49;;;;;;;0.70;0.70;;;;;;;-145.69;65.47;69944.09;5072764;28;20205;-78
2022/06/26 10:52:29;;;;;;;1.63;0.80;;;;;;;-145.69;64.00;69934.16;5073001;28;20202;-79
2022/06/26 10:54:59;;;;;;;1.40;1.00;;;;;;;-145.69;61.57;69934.16;5072301;28;20591;-78
2022/06/26 10:57:35;;;;;;;0.70;0.70;;;;;;;-145.69;66.38;69944.09;5072641;28;20279;-78
2022/06/26 11:00:03;;;;;;;0.77;0.77;;;;;;;-145.69;64.82;69914.25;5072508;28;20288;-78
2022/06/26 11:02:37;;;;;;;1.48;0.95;;;;;;;-145.69;64.09;69950.06;5069629;28;20201;-80
2022/06/26 11:05:05;;;;;;;1.45;1.00;;;;;;;-145.69;63.63;69954.03;5072519;28;20220;-79
2022/06/26 11:07:42;;;;;;;1.90;1.00;;;;;;;-145.69;65.81;69946.09;5072308;28;20209;-78
2022/06/26 11:10:22;;;;;;;1.40;0.90;;;;;;;-145.69;66.78;69965.97;5072639;28;20293;-78
2022/06/26 11:12:51;;;;;;;0.98;0.73;;;;;;;-145.69;66.98;69914.25;5072561;28;20203;-79
2022/06/26 11:15:32;;;;;;;1.35;0.80;;;;;;;-145.69;63.88;69870.50;5072476;28;20234;-78
2022/06/26 11:18:01;;;;;;;1.80;0.90;;;;;;;-145.69;62.01;69894.38;5072053;28;20214;-79
2022/06/26 11:20:49;;;;;;;2.45;0.90;;;;;;;-145.69;62.73;69854.59;5072191;28;20202;-79
2022/06/26 11:23:19;;;;;;;1.52;0.93;;;;;;;-145.69;64.98;69894.38;5072446;28;20195;-78
2022/06/26 11:25:47;;;;;;;0.90;0.90;;;;;;;-145.69;65.01;69898.34;5072158;28;20202;-79
2022/06/26 11:28:16;;;;;;;2.50;1.05;;;;;;;-145.69;62.57;69912.25;5072253;28;20203;-78
2022/06/26 11:30:44;;;;;;;1.50;0.90;;;;;;;-145.69;63.30;69902.31;5072279;28;20203;-78
2022/06/26 11:33:10;;;;;;;1.75;1.02;;;;;;;-145.69;60.42;69866.50;5071779;28;20550;-80
2022/06/26 11:35:37;;;;;;;1.52;0.90;;;;;;;-145.69;62.70;69902.31;5072285;28;20242;-77
2022/06/26 11:38:15;;;;;;;2.88;1.02;;;;;;;-145.69;68.10;69896.34;5072177;28;20207;-78
2022/06/26 11:40:44;;;;;;;0.93;0.90;;;;;;;-145.69;66.61;69856.56;5072208;28;20210;-78